createdAt,value
2023-05-20T00:00:54.953Z,58.74
2023-05-20T00:03:22.952Z,59.22
2023-05-20T00:05:50.686Z,59.33
2023-05-20T00:08:19.241Z,58.80
2023-05-20T00:10:47.140Z,58.86
2023-05-20T00:13:14.595Z,58.66
2023-05-20T00:15:42.109Z,59.28
2023-05-20T00:18:09.988Z,58.58
2023-05-20T00:20:37.580Z,59.26
2023-05-20T00:23:05.164Z,58.92
2023-05-20T00:25:33.166Z,58.91
2023-05-20T00:28:00.818Z,58.69
2023-05-20T00:30:28.934Z,58.91
2023-05-20T00:32:56.690Z,58.71
2023-05-20T00:35:24.305Z,58.92
2023-05-20T00:37:51.820Z,58.92
2023-05-20T00:40:20.934Z,58.98
2023-05-20T00:42:48.478Z,58.93
2023-05-20T00:45:16.359Z,58.93
2023-05-20T00:47:44.501Z,58.65
2023-05-20T00:50:12.086Z,59.31
2023-05-20T00:52:41.624Z,58.93
2023-05-20T00:55:09.534Z,59.00
2023-05-20T00:57:37.066Z,59.17
2023-05-20T01:00:05.942Z,59.11
2023-05-20T01:02:33.731Z,59.17
2023-05-20T01:05:01.492Z,60.22
2023-05-20T01:07:29.132Z,60.32
2023-05-20T01:09:57.083Z,59.84
2023-05-20T01:12:32.252Z,59.20
2023-05-20T01:15:11.929Z,59.11
2023-05-20T01:17:51.818Z,59.11
2023-05-20T01:20:21.163Z,59.35
2023-05-20T01:22:57.046Z,59.23
2023-05-20T01:25:26.441Z,59.47
2023-05-20T01:27:55.874Z,59.42
2023-05-20T01:30:28.300Z,59.37
2023-05-20T01:33:01.862Z,59.54
2023-05-20T01:35:31.107Z,59.61
2023-05-20T01:38:00.285Z,59.68
2023-05-20T01:40:28.010Z,59.75
2023-05-20T01:42:56.278Z,59.94
2023-05-20T01:45:25.052Z,60.21
2023-05-20T01:47:52.696Z,60.49
2023-05-20T01:50:20.216Z,60.66
2023-05-20T01:52:47.953Z,60.50
2023-05-20T01:55:15.582Z,60.68
2023-05-20T01:57:43.230Z,60.76
2023-05-20T02:00:11.418Z,60.86
2023-05-20T02:02:41.004Z,61.15
2023-05-20T02:05:10.671Z,62.10
2023-05-20T02:07:38.137Z,62.05
2023-05-20T02:10:06.376Z,62.65
2023-05-20T02:12:35.035Z,62.09
2023-05-20T02:15:02.630Z,61.50
2023-05-20T02:17:31.900Z,61.43
2023-05-20T02:19:59.731Z,61.35
2023-05-20T02:22:28.449Z,61.37
2023-05-20T02:24:56.026Z,61.18
2023-05-20T02:27:23.491Z,60.80
2023-05-20T02:29:51.334Z,60.89
2023-05-20T02:32:20.768Z,60.85
2023-05-20T02:34:48.261Z,60.51
2023-05-20T02:37:16.589Z,60.36
2023-05-20T02:39:44.028Z,60.36
2023-05-20T02:42:12.313Z,60.53
2023-05-20T02:44:40.197Z,60.24
2023-05-20T02:47:07.840Z,60.09
2023-05-20T02:49:35.319Z,59.84
2023-05-20T02:52:04.382Z,60.16
2023-05-20T02:54:31.845Z,60.34
2023-05-20T02:56:59.396Z,60.69
2023-05-20T02:59:27.180Z,60.60
2023-05-20T03:01:54.654Z,60.70
2023-05-20T03:04:22.641Z,60.72
2023-05-20T03:06:52.144Z,60.20
2023-05-20T03:09:20.013Z,61.05
2023-05-20T03:11:48.432Z,60.38
2023-05-20T03:14:16.306Z,60.00
2023-05-20T03:16:44.750Z,59.82
2023-05-20T03:19:13.050Z,59.56
2023-05-20T03:21:41.321Z,59.18
2023-05-20T03:24:09.088Z,58.87
2023-05-20T03:26:37.790Z,58.81
2023-05-20T03:29:05.669Z,58.63
2023-05-20T03:31:33.546Z,58.37
2023-05-20T03:34:01.240Z,58.38
2023-05-20T03:36:29.352Z,58.21
2023-05-20T03:38:57.241Z,58.16
2023-05-20T03:41:24.812Z,58.15
2023-05-20T03:43:52.614Z,58.19
2023-05-20T03:46:20.623Z,58.90
2023-05-20T03:48:48.194Z,57.69
2023-05-20T03:51:15.977Z,58.14
2023-05-20T03:53:43.801Z,58.29
2023-05-20T03:56:11.413Z,57.94
2023-05-20T03:58:39.654Z,58.24
2023-05-20T04:01:07.237Z,58.32
2023-05-20T04:03:35.285Z,58.36
2023-05-20T04:06:04.490Z,58.10
2023-05-20T04:08:32.498Z,58.75
2023-05-20T04:11:00.292Z,58.63
2023-05-20T04:13:27.917Z,58.35
2023-05-20T04:15:55.510Z,58.44
2023-05-20T04:18:23.331Z,59.23
2023-05-20T04:20:54.938Z,58.60
2023-05-20T04:23:23.621Z,59.31
2023-05-20T04:25:51.325Z,58.62
2023-05-20T04:28:18.955Z,58.56
2023-05-20T04:30:46.736Z,58.92
2023-05-20T04:33:14.984Z,58.44
2023-05-20T04:35:42.922Z,57.80
2023-05-20T04:38:10.726Z,56.37
2023-05-20T04:40:40.251Z,57.27
2023-05-20T04:43:08.060Z,57.04
2023-05-20T04:45:36.798Z,56.64
2023-05-20T04:48:06.176Z,56.97
2023-05-20T04:50:37.953Z,56.24
2023-05-20T04:53:08.906Z,56.05
2023-05-20T04:55:37.438Z,55.95
2023-05-20T04:58:05.802Z,56.47
2023-05-20T05:00:33.689Z,55.67
2023-05-20T05:03:01.548Z,55.53
2023-05-20T05:05:29.067Z,55.57
2023-05-20T05:07:56.769Z,55.81
2023-05-20T05:10:25.280Z,55.83
2023-05-20T05:12:52.846Z,56.79
2023-05-20T05:15:20.652Z,55.45
2023-05-20T05:17:48.330Z,55.94
2023-05-20T05:20:16.070Z,55.23
2023-05-20T05:22:44.527Z,55.72
2023-05-20T05:25:12.608Z,54.37
2023-05-20T05:27:40.611Z,54.13
2023-05-20T05:30:08.947Z,53.41
2023-05-20T05:32:37.779Z,55.34
2023-05-20T05:35:08.050Z,54.61
2023-05-20T05:37:36.230Z,54.45
2023-05-20T05:40:04.867Z,55.12
2023-05-20T05:42:32.332Z,54.96
2023-05-20T05:45:00.127Z,54.87
2023-05-20T05:47:32.399Z,55.22
2023-05-20T05:50:00.705Z,53.73
2023-05-20T05:52:29.128Z,55.10
2023-05-20T05:54:57.395Z,53.13
2023-05-20T05:57:25.404Z,53.58
2023-05-20T05:59:53.641Z,54.60
2023-05-20T06:02:22.469Z,54.44
2023-05-20T06:04:50.485Z,54.91
2023-05-20T06:07:18.784Z,54.94
2023-05-20T06:09:46.482Z,54.69
2023-05-20T06:12:14.278Z,54.13
2023-05-20T06:14:42.030Z,53.74
2023-05-20T06:17:09.885Z,53.38
2023-05-20T06:19:37.923Z,55.27
2023-05-20T06:22:05.609Z,54.17
2023-05-20T06:24:34.428Z,53.70
2023-05-20T06:27:03.254Z,53.03
2023-05-20T06:29:31.019Z,52.16
2023-05-20T06:31:58.481Z,52.28
2023-05-20T06:34:26.814Z,51.80
2023-05-20T06:36:54.389Z,52.67
2023-05-20T06:39:21.913Z,51.49
2023-05-20T06:41:49.812Z,51.63
2023-05-20T06:44:19.392Z,51.57
2023-05-20T06:46:49.939Z,51.02
2023-05-20T06:49:17.526Z,50.93
2023-05-20T06:51:45.550Z,50.69
2023-05-20T06:54:13.272Z,50.48
2023-05-20T06:56:42.333Z,51.03
2023-05-20T06:59:09.915Z,50.20
2023-05-20T07:01:38.433Z,50.22
2023-05-20T07:04:06.020Z,50.22
2023-05-20T07:06:33.865Z,49.24
2023-05-20T07:09:01.949Z,48.85
2023-05-20T07:11:29.597Z,48.83
2023-05-20T07:13:57.259Z,49.16
2023-05-20T07:16:25.536Z,50.65
2023-05-20T07:18:53.834Z,50.32
2023-05-20T07:21:21.467Z,49.25
2023-05-20T07:23:50.421Z,48.93
2023-05-20T07:26:18.389Z,49.67
2023-05-20T07:28:47.186Z,48.35
2023-05-20T07:31:15.584Z,48.46
2023-05-20T07:33:43.122Z,48.91
2023-05-20T07:36:11.394Z,49.84
2023-05-20T07:38:41.104Z,47.44
2023-05-20T07:41:09.207Z,47.02
2023-05-20T07:43:36.760Z,47.09
2023-05-20T07:46:04.864Z,46.29
2023-05-20T07:48:32.441Z,47.47
2023-05-20T07:50:59.911Z,47.01
2023-05-20T07:53:28.103Z,46.44
2023-05-20T07:55:56.578Z,45.77
2023-05-20T07:58:25.176Z,47.72
2023-05-20T08:00:53.108Z,47.51
2023-05-20T08:03:22.507Z,46.66
2023-05-20T08:05:50.473Z,46.61
2023-05-20T08:08:18.555Z,49.23
2023-05-20T08:10:47.606Z,47.67
2023-05-20T08:13:15.133Z,46.84
2023-05-20T08:15:43.025Z,47.08
2023-05-20T08:18:11.461Z,46.91
2023-05-20T08:20:38.962Z,47.31
2023-05-20T08:23:06.535Z,46.79
2023-05-20T08:25:34.650Z,47.48
2023-05-20T08:28:04.076Z,47.03
2023-05-20T08:30:31.929Z,45.86
2023-05-20T08:33:00.407Z,47.99
2023-05-20T08:35:28.910Z,45.62
2023-05-20T08:37:56.382Z,46.77
2023-05-20T08:40:24.316Z,44.26
2023-05-20T08:42:54.946Z,43.39
2023-05-20T08:45:27.886Z,44.18
2023-05-20T08:47:56.403Z,44.88
2023-05-20T08:50:23.910Z,45.31
2023-05-20T08:52:51.818Z,45.72
2023-05-20T08:55:26.969Z,45.50
2023-05-20T08:57:54.772Z,46.46
2023-05-20T09:00:27.350Z,44.53
2023-05-20T09:02:57.022Z,45.04
2023-05-20T09:05:25.913Z,43.86
2023-05-20T09:07:53.549Z,43.07
2023-05-20T09:10:21.080Z,43.04
2023-05-20T09:12:49.284Z,44.15
2023-05-20T09:15:16.917Z,43.87
2023-05-20T09:17:44.376Z,44.40
2023-05-20T09:20:12.557Z,41.66
2023-05-20T09:22:40.150Z,44.29
2023-05-20T09:25:08.074Z,43.20
2023-05-20T09:27:36.224Z,43.87
2023-05-20T09:30:07.270Z,43.06
2023-05-20T09:32:34.725Z,43.58
2023-05-20T09:35:04.435Z,44.09
2023-05-20T09:37:35.044Z,44.23
2023-05-20T09:40:07.206Z,42.69
2023-05-20T09:42:54.956Z,41.52
2023-05-20T09:45:23.127Z,40.38
2023-05-20T09:47:52.326Z,41.01
2023-05-20T09:50:23.674Z,40.38
2023-05-20T09:52:52.787Z,40.95
2023-05-20T09:55:23.434Z,40.69
2023-05-20T09:57:51.962Z,40.25
2023-05-20T10:00:19.757Z,40.15
2023-05-20T10:02:51.735Z,39.96
2023-05-20T10:05:24.217Z,38.79
2023-05-20T10:07:52.206Z,38.26
2023-05-20T10:10:52.604Z,38.30
2023-05-20T10:13:23.299Z,38.25
2023-05-20T10:16:24.469Z,38.23
2023-05-20T10:18:58.218Z,37.97
2023-05-20T10:21:26.205Z,38.26
2023-05-20T10:23:54.116Z,37.70
2023-05-20T10:26:22.518Z,38.03
2023-05-20T10:28:50.043Z,38.19
2023-05-20T10:31:21.977Z,36.88
2023-05-20T10:33:52.045Z,36.42
2023-05-20T10:36:26.961Z,36.06
2023-05-20T10:39:00.737Z,35.98
2023-05-20T10:41:29.557Z,36.46
2023-05-20T10:44:04.712Z,34.69
2023-05-20T10:46:46.275Z,34.60
2023-05-20T10:49:24.155Z,35.29
2023-05-20T10:51:55.599Z,35.75
2023-05-20T10:54:23.441Z,35.12
2023-05-20T10:56:53.043Z,34.25
2023-05-20T10:59:24.146Z,32.25
2023-05-20T11:01:51.936Z,33.10
2023-05-20T11:04:19.830Z,33.06
2023-05-20T11:06:53.621Z,33.09
2023-05-20T11:09:21.226Z,32.33
2023-05-20T11:11:51.512Z,32.43
2023-05-20T11:14:20.222Z,33.28
2023-05-20T11:16:52.263Z,31.87
2023-05-20T11:19:21.580Z,32.21
2023-05-20T11:21:49.339Z,31.76
2023-05-20T11:24:27.071Z,31.62
2023-05-20T11:26:56.237Z,31.86
2023-05-20T11:29:23.772Z,33.24
2023-05-20T11:31:52.227Z,32.82
2023-05-20T11:34:26.329Z,30.78
2023-05-20T11:36:58.869Z,30.36
2023-05-20T11:39:30.067Z,32.38
2023-05-20T11:41:58.423Z,29.12
2023-05-20T11:44:26.469Z,29.50
2023-05-20T11:47:00.529Z,29.71
2023-05-20T11:49:28.700Z,31.10
2023-05-20T11:51:57.184Z,31.31
2023-05-20T11:54:24.906Z,30.45
2023-05-20T11:56:54.395Z,31.00
2023-05-20T11:59:24.253Z,31.50
2023-05-20T12:01:51.730Z,32.00
2023-05-20T12:04:19.635Z,32.06
2023-05-20T12:06:47.269Z,32.59
2023-05-20T12:09:14.818Z,33.31
2023-05-20T12:11:44.616Z,33.16
2023-05-20T12:14:12.193Z,33.10
2023-05-20T12:16:39.770Z,33.44
2023-05-20T12:19:08.833Z,33.30
2023-05-20T12:21:36.642Z,32.92
2023-05-20T12:24:06.885Z,33.20
2023-05-20T12:26:35.597Z,32.67
2023-05-20T12:29:03.321Z,33.03
2023-05-20T12:31:33.116Z,33.57
2023-05-20T12:34:01.633Z,31.84
2023-05-20T12:36:29.209Z,33.00
2023-05-20T12:38:56.757Z,31.68
2023-05-20T12:41:24.704Z,33.10
2023-05-20T12:43:52.228Z,33.54
2023-05-20T12:46:19.801Z,34.12
2023-05-20T12:48:48.621Z,33.84
2023-05-20T12:51:16.170Z,33.65
2023-05-20T12:53:43.652Z,33.57
2023-05-20T12:56:11.533Z,33.10
2023-05-20T12:58:39.012Z,33.96
2023-05-20T13:01:06.606Z,33.03
2023-05-20T13:03:34.398Z,33.37
2023-05-20T13:06:02.020Z,32.75
2023-05-20T13:08:29.516Z,32.62
2023-05-20T13:10:57.342Z,32.83
2023-05-20T13:13:24.903Z,33.32
2023-05-20T13:15:52.436Z,32.64
2023-05-20T13:18:20.308Z,33.79
2023-05-20T13:20:47.805Z,34.10
2023-05-20T13:23:15.345Z,33.51
2023-05-20T13:25:43.117Z,34.04
2023-05-20T13:28:12.632Z,34.32
2023-05-20T13:30:40.173Z,33.11
2023-05-20T13:33:08.061Z,32.92
2023-05-20T13:35:36.385Z,32.65
2023-05-20T13:38:03.893Z,33.85
2023-05-20T13:40:31.716Z,33.56
2023-05-20T13:42:59.145Z,34.34
2023-05-20T13:45:27.575Z,33.86
2023-05-20T13:47:55.402Z,33.11
2023-05-20T13:50:23.225Z,32.85
2023-05-20T13:52:50.696Z,33.54
2023-05-20T13:55:18.573Z,32.24
2023-05-20T13:57:46.731Z,34.11
2023-05-20T14:00:14.731Z,32.43
2023-05-20T14:02:42.641Z,31.85
2023-05-20T14:05:10.724Z,32.78
2023-05-20T14:07:38.314Z,32.13
2023-05-20T14:10:07.219Z,33.52
2023-05-20T14:12:34.687Z,33.42
2023-05-20T14:15:02.173Z,34.21
2023-05-20T14:17:30.014Z,34.92
2023-05-20T14:19:57.714Z,34.62
2023-05-20T14:22:25.216Z,34.53
2023-05-20T14:24:52.967Z,34.13
2023-05-20T14:27:20.511Z,33.31
2023-05-20T14:29:47.957Z,33.75
2023-05-20T14:32:15.714Z,33.70
2023-05-20T14:34:43.342Z,33.03
2023-05-20T14:37:11.976Z,34.04
2023-05-20T14:39:39.858Z,34.10
2023-05-20T14:42:07.529Z,34.25
2023-05-20T14:44:34.944Z,33.85
2023-05-20T14:47:03.463Z,32.87
2023-05-20T14:49:31.691Z,33.11
2023-05-20T14:51:59.152Z,32.12
2023-05-20T14:54:27.765Z,31.78
2023-05-20T14:56:55.307Z,31.78
2023-05-20T14:59:22.803Z,32.33
2023-05-20T15:01:50.718Z,32.07
2023-05-20T15:04:18.183Z,31.82
2023-05-20T15:06:45.677Z,31.81
2023-05-20T15:09:13.747Z,30.99
2023-05-20T15:11:41.209Z,31.68
2023-05-20T15:14:08.722Z,30.91
2023-05-20T15:16:37.006Z,32.25
2023-05-20T15:19:04.599Z,32.26
2023-05-20T15:21:32.201Z,31.58
2023-05-20T15:23:59.918Z,32.43
2023-05-20T15:26:27.884Z,32.28
2023-05-20T15:28:55.455Z,31.83
2023-05-20T15:31:23.743Z,31.97
2023-05-20T15:33:51.254Z,31.58
2023-05-20T15:36:18.737Z,30.51
2023-05-20T15:38:46.572Z,30.29
2023-05-20T15:41:14.868Z,30.64
2023-05-20T15:43:43.494Z,30.56
2023-05-20T15:46:12.600Z,31.83
2023-05-20T15:48:41.518Z,31.78
2023-05-20T15:51:10.071Z,32.16
2023-05-20T15:53:40.090Z,32.76
2023-05-20T15:56:09.094Z,32.20
2023-05-20T15:58:37.196Z,32.87
2023-05-20T16:01:06.791Z,33.33
2023-05-20T16:03:35.223Z,33.25
2023-05-20T16:06:03.943Z,34.07
2023-05-20T16:08:34.339Z,35.16
2023-05-20T16:11:02.738Z,34.63
2023-05-20T16:13:31.452Z,34.00
2023-05-20T16:16:00.365Z,33.98
2023-05-20T16:18:30.133Z,34.95
2023-05-20T16:20:59.021Z,36.34
2023-05-20T16:23:27.497Z,35.85
2023-05-20T16:25:56.470Z,36.92
2023-05-20T16:28:26.089Z,37.24
2023-05-20T16:30:54.578Z,36.03
2023-05-20T16:33:22.873Z,36.17
2023-05-20T16:35:50.483Z,37.36
2023-05-20T16:38:18.577Z,36.63
2023-05-20T16:40:47.264Z,36.65
2023-05-20T16:43:16.138Z,36.59
2023-05-20T16:45:45.047Z,36.70
2023-05-20T16:48:13.850Z,36.66
2023-05-20T16:50:43.557Z,36.29
2023-05-20T16:53:11.652Z,36.17
2023-05-20T16:55:39.959Z,36.75
2023-05-20T16:58:07.921Z,37.12
2023-05-20T17:00:35.673Z,37.70
2023-05-20T17:03:04.323Z,37.36
2023-05-20T17:05:31.933Z,37.07
2023-05-20T17:08:00.789Z,37.04
2023-05-20T17:10:29.574Z,36.86
2023-05-20T17:12:57.760Z,36.07
2023-05-20T17:15:25.664Z,36.91
2023-05-20T17:17:53.486Z,36.04
2023-05-20T17:20:21.032Z,36.49
2023-05-20T17:22:48.523Z,36.24
2023-05-20T17:25:16.273Z,37.42
2023-05-20T17:27:43.796Z,37.90
2023-05-20T17:30:11.582Z,37.24
2023-05-20T17:32:40.585Z,37.01
2023-05-20T17:35:08.544Z,36.63
2023-05-20T17:37:36.968Z,37.15
2023-05-20T17:40:07.810Z,37.06
2023-05-20T17:42:35.697Z,37.03
2023-05-20T17:45:03.326Z,37.11
2023-05-20T17:47:31.534Z,37.71
2023-05-20T17:50:00.086Z,37.91
2023-05-20T17:52:27.560Z,37.26
2023-05-20T17:54:55.586Z,37.22
2023-05-20T17:57:23.105Z,37.85
2023-05-20T17:59:50.953Z,37.07
2023-05-20T18:02:18.780Z,36.86
2023-05-20T18:04:46.673Z,37.22
2023-05-20T18:07:14.442Z,37.35
2023-05-20T18:09:41.926Z,36.58
2023-05-20T18:12:09.705Z,36.95
2023-05-20T18:14:37.183Z,37.26
2023-05-20T18:17:04.887Z,37.33
2023-05-20T18:19:33.983Z,36.54
2023-05-20T18:22:02.821Z,36.35
2023-05-20T18:24:30.681Z,36.02
2023-05-20T18:26:58.476Z,35.87
2023-05-20T18:29:27.142Z,35.74
2023-05-20T18:31:54.638Z,36.46
2023-05-20T18:34:22.435Z,36.32
2023-05-20T18:36:50.013Z,36.58
2023-05-20T18:39:20.723Z,36.66
2023-05-20T18:41:48.586Z,36.61
2023-05-20T18:44:17.074Z,36.93
2023-05-20T18:46:44.966Z,37.08
2023-05-20T18:49:13.082Z,36.66
2023-05-20T18:51:41.105Z,36.65
2023-05-20T18:54:08.662Z,37.89
2023-05-20T18:56:36.495Z,37.94
2023-05-20T18:59:03.956Z,38.05
2023-05-20T19:01:33.829Z,38.00
2023-05-20T19:04:02.059Z,37.98
2023-05-20T19:06:29.607Z,38.85
2023-05-20T19:08:57.103Z,39.49
2023-05-20T19:11:24.862Z,40.63
2023-05-20T19:13:52.314Z,40.92
2023-05-20T19:16:20.137Z,41.90
2023-05-20T19:18:47.991Z,41.62
2023-05-20T19:21:16.480Z,41.68
2023-05-20T19:23:43.982Z,41.93
2023-05-20T19:26:11.886Z,41.84
2023-05-20T19:28:39.374Z,42.11
2023-05-20T19:31:07.267Z,42.77
2023-05-20T19:33:35.014Z,43.05
2023-05-20T19:36:02.758Z,42.71
2023-05-20T19:38:30.215Z,42.81
2023-05-20T19:40:58.231Z,43.50
2023-05-20T19:43:25.730Z,43.60
2023-05-20T19:45:53.624Z,43.63
2023-05-20T19:48:22.429Z,43.56
2023-05-20T19:50:50.717Z,43.76
2023-05-20T19:53:19.941Z,43.90
2023-05-20T19:55:47.946Z,44.22
2023-05-20T19:58:15.498Z,44.04
2023-05-20T20:00:43.295Z,44.00
2023-05-20T20:03:11.348Z,43.99
2023-05-20T20:05:39.350Z,43.73
2023-05-20T20:08:07.260Z,43.65
2023-05-20T20:10:37.543Z,44.18
2023-05-20T20:13:05.561Z,44.35
2023-05-20T20:15:33.372Z,45.55
2023-05-20T20:18:02.921Z,45.15
2023-05-20T20:20:31.212Z,45.04
2023-05-20T20:22:58.749Z,44.77
2023-05-20T20:25:26.878Z,44.69
2023-05-20T20:27:54.573Z,44.55
2023-05-20T20:30:22.062Z,44.80
2023-05-20T20:32:49.843Z,44.38
2023-05-20T20:35:17.344Z,43.34
2023-05-20T20:37:45.136Z,43.60
2023-05-20T20:40:16.412Z,43.83
2023-05-20T20:42:45.312Z,43.24
2023-05-20T20:45:13.210Z,43.05
2023-05-20T20:47:41.749Z,42.73
2023-05-20T20:50:11.582Z,42.52
2023-05-20T20:52:39.955Z,42.34
2023-05-20T20:55:07.757Z,42.35
2023-05-20T20:57:35.329Z,42.36
2023-05-20T21:00:17.736Z,42.18
2023-05-20T21:02:45.280Z,42.12
2023-05-20T21:05:16.838Z,41.73
2023-05-20T21:07:49.693Z,41.61
2023-05-20T21:10:17.873Z,41.68
2023-05-20T21:12:45.618Z,41.41
2023-05-20T21:15:14.909Z,41.40
2023-05-20T21:17:42.709Z,41.32
2023-05-20T21:20:10.882Z,41.59
2023-05-20T21:22:38.354Z,41.82
2023-05-20T21:25:06.696Z,43.47
2023-05-20T21:27:34.186Z,42.48
2023-05-20T21:30:01.755Z,42.39
2023-05-20T21:32:30.587Z,42.99
2023-05-20T21:34:58.437Z,42.66
2023-05-20T21:37:26.048Z,42.83
2023-05-20T21:39:53.781Z,42.78
2023-05-20T21:42:21.335Z,42.72
2023-05-20T21:44:48.805Z,42.65
2023-05-20T21:47:16.916Z,42.91
2023-05-20T21:49:44.636Z,42.86
2023-05-20T21:52:12.145Z,43.22
2023-05-20T21:54:40.289Z,43.12
2023-05-20T21:57:07.788Z,43.08
2023-05-20T21:59:35.281Z,43.16
2023-05-20T22:02:03.107Z,43.22
2023-05-20T22:04:33.352Z,43.25
2023-05-20T22:07:00.978Z,43.38
2023-05-20T22:09:28.647Z,43.19
2023-05-20T22:11:56.528Z,43.27
2023-05-20T22:14:24.140Z,42.88
2023-05-20T22:16:51.638Z,43.01
2023-05-20T22:19:19.484Z,42.87
2023-05-20T22:21:50.821Z,42.81
2023-05-20T22:24:18.982Z,43.24
2023-05-20T22:26:46.484Z,43.23
2023-05-20T22:29:14.028Z,43.03
2023-05-20T22:31:41.768Z,43.01
2023-05-20T22:34:09.239Z,43.04
2023-05-20T22:36:37.473Z,43.60
2023-05-20T22:39:06.991Z,43.74
2023-05-20T22:41:34.550Z,43.38
2023-05-20T22:44:02.913Z,43.41
2023-05-20T22:46:30.710Z,43.98
2023-05-20T22:48:58.474Z,43.84
2023-05-20T22:51:25.987Z,43.87
2023-05-20T22:53:53.733Z,44.35
2023-05-20T22:56:21.342Z,44.61
2023-05-20T22:58:48.816Z,44.61
2023-05-20T23:01:16.855Z,44.48
2023-05-20T23:03:44.970Z,44.50
2023-05-20T23:06:12.813Z,45.32
2023-05-20T23:08:42.912Z,45.91
2023-05-20T23:11:10.767Z,46.29
2023-05-20T23:13:38.229Z,46.17
2023-05-20T23:16:06.098Z,46.03
2023-05-20T23:18:33.660Z,46.59
2023-05-20T23:21:01.239Z,46.45
2023-05-20T23:23:31.857Z,46.31
2023-05-20T23:26:00.169Z,46.49
2023-05-20T23:28:27.756Z,46.49
2023-05-20T23:30:55.540Z,46.42
2023-05-20T23:33:25.484Z,46.46
2023-05-20T23:35:53.481Z,47.87
2023-05-20T23:38:21.541Z,47.54
2023-05-20T23:40:49.471Z,47.47
2023-05-20T23:43:17.023Z,47.71
2023-05-20T23:45:44.822Z,47.55
2023-05-20T23:48:13.669Z,47.41
2023-05-20T23:50:41.268Z,47.48
2023-05-20T23:53:09.098Z,47.43
2023-05-20T23:55:36.931Z,48.19
2023-05-20T23:58:04.683Z,48.36
